createdAt,value
2023-03-06T00:00:31.826Z,853.6
2023-03-06T00:02:15.547Z,853.4
2023-03-06T00:03:59.203Z,853.1
2023-03-06T00:05:42.887Z,854.2
2023-03-06T00:07:26.593Z,856.9
2023-03-06T00:09:10.286Z,857.6
2023-03-06T00:10:53.990Z,859.2
2023-03-06T00:12:37.706Z,863.4
2023-03-06T00:14:21.398Z,860.6
2023-03-06T00:16:05.099Z,860.4
2023-03-06T00:17:48.806Z,863.1
2023-03-06T00:19:32.578Z,864.7
2023-03-06T00:21:16.228Z,866.7
2023-03-06T00:22:59.911Z,866.5
2023-03-06T00:24:43.662Z,868.6
2023-03-06T00:26:27.322Z,871.3
2023-03-06T00:28:11.046Z,876.8
2023-03-06T00:29:54.725Z,879.1
2023-03-06T00:31:38.429Z,878.6
2023-03-06T00:33:22.133Z,879.1
2023-03-06T00:35:05.829Z,879.8
2023-03-06T00:36:49.525Z,883.8
2023-03-06T00:38:33.230Z,888.4
2023-03-06T00:40:16.934Z,888.6
2023-03-06T00:42:00.643Z,889.5
2023-03-06T00:43:44.354Z,892.5
2023-03-06T00:45:28.040Z,893
2023-03-06T00:47:11.752Z,892.1
2023-03-06T00:48:55.451Z,894.8
2023-03-06T00:50:39.182Z,894.4
2023-03-06T00:52:22.866Z,896
2023-03-06T00:54:06.592Z,895
2023-03-06T00:55:50.273Z,893.9
2023-03-06T00:57:33.961Z,898.9
2023-03-06T00:59:17.733Z,896.2
2023-03-06T01:01:01.350Z,896.5
2023-03-06T01:02:45.059Z,896.9
2023-03-06T01:04:28.771Z,900.4
2023-03-06T01:06:12.465Z,902.7
2023-03-06T01:07:56.204Z,898.8
2023-03-06T01:09:39.876Z,895.2
2023-03-06T01:11:23.575Z,899.9
2023-03-06T01:13:07.291Z,899.9
2023-03-06T01:14:50.980Z,901.5
2023-03-06T01:16:34.681Z,905.3
2023-03-06T01:18:18.386Z,908.1
2023-03-06T01:20:02.190Z,907.9
2023-03-06T01:21:45.862Z,911.1
2023-03-06T01:23:29.498Z,916.6
2023-03-06T01:25:13.279Z,919.9
2023-03-06T01:26:56.885Z,918.3
2023-03-06T01:28:40.601Z,918.6
2023-03-06T01:30:24.293Z,920.2
2023-03-06T01:32:07.994Z,920.8
2023-03-06T01:33:51.703Z,921.8
2023-03-06T01:35:35.407Z,924.8
2023-03-06T01:37:19.097Z,927.8
2023-03-06T01:39:02.806Z,930.6
2023-03-06T01:40:46.573Z,931.7
2023-03-06T01:42:30.280Z,929.4
2023-03-06T01:44:14.027Z,928.1
2023-03-06T01:45:57.619Z,931.3
2023-03-06T01:47:41.318Z,932
2023-03-06T01:49:25.067Z,930.9
2023-03-06T01:51:08.719Z,932
2023-03-06T01:52:52.423Z,929.4
2023-03-06T01:54:36.129Z,926.7
2023-03-06T01:56:19.827Z,924.6
2023-03-06T01:58:03.531Z,924.4
2023-03-06T01:59:47.233Z,926.3
2023-03-06T02:01:30.939Z,927.9
2023-03-06T02:03:14.655Z,926.6
2023-03-06T02:04:58.330Z,932.1
2023-03-06T02:06:42.069Z,932.5
2023-03-06T02:08:25.748Z,931.8
2023-03-06T02:10:09.445Z,933.9
2023-03-06T02:11:53.151Z,932.3
2023-03-06T02:13:36.861Z,930.6
2023-03-06T02:15:20.567Z,930.4
2023-03-06T02:17:04.264Z,927.1
2023-03-06T02:18:47.959Z,929.1
2023-03-06T02:20:31.669Z,927.7
2023-03-06T02:22:15.378Z,926.6
2023-03-06T02:23:59.064Z,929.1
2023-03-06T02:25:42.785Z,927.3
2023-03-06T02:27:26.483Z,926.4
2023-03-06T02:29:10.182Z,925.1
2023-03-06T02:30:53.893Z,929.2
2023-03-06T02:32:37.582Z,928.4
2023-03-06T02:34:21.303Z,928.1
2023-03-06T02:36:05.034Z,927.5
2023-03-06T02:37:48.682Z,928
2023-03-06T02:39:32.390Z,926.9
2023-03-06T02:41:16.105Z,931.2
2023-03-06T02:42:59.806Z,930.6
2023-03-06T02:44:43.517Z,930.3
2023-03-06T02:46:27.204Z,929
2023-03-06T02:48:10.904Z,931.4
2023-03-06T02:49:54.662Z,933.5
2023-03-06T02:51:38.326Z,935.2
2023-03-06T02:53:22.023Z,939.5
2023-03-06T02:55:05.714Z,936.6
2023-03-06T02:56:49.422Z,932.8
2023-03-06T02:58:33.119Z,931.7
2023-03-06T03:00:16.820Z,931.7
2023-03-06T03:02:00.529Z,932.3
2023-03-06T03:03:44.280Z,930.3
2023-03-06T03:05:27.922Z,929.9
2023-03-06T03:07:11.621Z,932.5
2023-03-06T03:08:55.330Z,934.3
2023-03-06T03:10:39.050Z,940.5
2023-03-06T03:12:22.732Z,940.3
2023-03-06T03:14:06.486Z,939.5
2023-03-06T03:15:50.144Z,942.1
2023-03-06T03:17:33.843Z,948
2023-03-06T03:19:17.587Z,947.2
2023-03-06T03:21:01.282Z,947.2
2023-03-06T03:22:44.958Z,948.7
2023-03-06T03:24:28.657Z,949.5
2023-03-06T03:26:12.370Z,950.2
2023-03-06T03:27:56.063Z,949.5
2023-03-06T03:29:39.768Z,941.5
2023-03-06T03:31:23.483Z,938.4
2023-03-06T03:33:07.188Z,939.1
2023-03-06T03:34:50.876Z,943.1
2023-03-06T03:36:34.601Z,944.1
2023-03-06T03:38:18.334Z,946.4
2023-03-06T03:40:02.007Z,950.1
2023-03-06T03:41:45.678Z,952.9
2023-03-06T03:43:29.427Z,955.7
2023-03-06T03:45:13.098Z,956.2
2023-03-06T03:46:56.806Z,954.4
2023-03-06T03:48:40.501Z,955.2
2023-03-06T03:50:24.229Z,953
2023-03-06T03:52:07.903Z,960.6
2023-03-06T03:53:51.606Z,965.4
2023-03-06T03:55:35.307Z,968.8
2023-03-06T03:57:19.005Z,974.5
2023-03-06T03:59:02.702Z,975.8
2023-03-06T04:00:46.447Z,975.5
2023-03-06T04:02:30.116Z,976.7
2023-03-06T04:04:13.815Z,975.6
2023-03-06T04:05:57.526Z,977.7
2023-03-06T04:07:41.258Z,977.7
2023-03-06T04:09:24.943Z,976.3
2023-03-06T04:11:08.631Z,974.4
2023-03-06T04:12:52.334Z,974.8
2023-03-06T04:14:36.057Z,975.5
2023-03-06T04:16:19.735Z,974.6
2023-03-06T04:18:03.435Z,976.4
2023-03-06T04:19:47.176Z,979.1
2023-03-06T04:21:30.839Z,981.2
2023-03-06T04:23:14.545Z,983.4
2023-03-06T04:24:58.244Z,983.4
2023-03-06T04:26:41.953Z,982.9
2023-03-06T04:28:25.658Z,984.1
2023-03-06T04:30:09.365Z,987.1
2023-03-06T04:31:53.059Z,986.2
2023-03-06T04:33:36.762Z,984.5
2023-03-06T04:35:20.552Z,983.3
2023-03-06T04:37:04.162Z,984.7
2023-03-06T04:38:47.868Z,987.7
2023-03-06T04:40:31.568Z,984.4
2023-03-06T04:42:15.315Z,986
2023-03-06T04:43:59.008Z,987.2
2023-03-06T04:45:42.699Z,990.7
2023-03-06T04:47:26.461Z,994.5
2023-03-06T04:49:10.141Z,994.5
2023-03-06T04:50:53.783Z,997
2023-03-06T04:52:37.482Z,997.4
2023-03-06T04:54:21.202Z,998.5
2023-03-06T04:56:04.894Z,999.1
2023-03-06T04:57:48.583Z,999.1
2023-03-06T04:59:32.314Z,1002.9
2023-03-06T05:01:15.992Z,1004.9
2023-03-06T05:02:59.691Z,1005.2
2023-03-06T05:04:43.394Z,1003.3
2023-03-06T05:06:27.095Z,1001
2023-03-06T05:08:10.803Z,1001.2
2023-03-06T05:09:54.512Z,1002.2
2023-03-06T05:11:38.229Z,1002.4
2023-03-06T05:13:21.943Z,1002
2023-03-06T05:15:05.616Z,1006.1
2023-03-06T05:16:49.309Z,1006.8
2023-03-06T05:18:33.029Z,1013.2
2023-03-06T05:20:16.724Z,1016.3
2023-03-06T05:22:00.431Z,1019.4
2023-03-06T05:23:44.133Z,1021.2
2023-03-06T05:25:27.829Z,1021.9
2023-03-06T05:27:11.529Z,1019.1
2023-03-06T05:28:55.245Z,1018.1
2023-03-06T05:30:38.940Z,1016.9
2023-03-06T05:32:22.642Z,1020.1
2023-03-06T05:34:06.358Z,1022.3
2023-03-06T05:35:50.051Z,1026.4
2023-03-06T05:37:33.756Z,1029.8
2023-03-06T05:39:17.456Z,1035.5
2023-03-06T05:41:01.158Z,1035.1
2023-03-06T05:42:44.862Z,1036.9
2023-03-06T05:44:28.570Z,1036.3
2023-03-06T05:46:12.277Z,1036.3
2023-03-06T05:47:55.968Z,1033.9
2023-03-06T05:49:39.669Z,1035.8
2023-03-06T05:51:23.370Z,1038.6
2023-03-06T05:53:07.072Z,1038.1
2023-03-06T05:54:50.795Z,1038.4
2023-03-06T05:56:34.478Z,1039.5
2023-03-06T05:58:18.177Z,1041.3
2023-03-06T06:00:01.885Z,1040.1
2023-03-06T06:01:45.585Z,1040.5
2023-03-06T06:03:29.284Z,1042.1
2023-03-06T06:05:12.995Z,1088.5
2023-03-06T06:06:56.715Z,1145
2023-03-06T06:08:40.401Z,1189.6
2023-03-06T06:10:24.101Z,1217.6
2023-03-06T06:12:07.790Z,1232.3
2023-03-06T06:13:51.545Z,1240.3
2023-03-06T06:15:35.204Z,1248.6
2023-03-06T06:17:18.899Z,1249.4
2023-03-06T06:19:02.605Z,1252.7
2023-03-06T06:20:46.319Z,1268
2023-03-06T06:22:30.012Z,1295.6
2023-03-06T06:24:13.717Z,1302.7
2023-03-06T06:25:57.415Z,1310.5
2023-03-06T06:27:41.138Z,1314
2023-03-06T06:29:24.829Z,1315.4
2023-03-06T06:31:08.527Z,1322
2023-03-06T06:32:52.232Z,1324.7
2023-03-06T06:34:35.928Z,1325.2
2023-03-06T06:36:19.644Z,1327.3
2023-03-06T06:38:03.449Z,1335.9
2023-03-06T06:41:30.744Z,1376.3
2023-03-06T06:43:14.443Z,1383.7
2023-03-06T06:44:58.149Z,1388.6
2023-03-06T06:46:42.058Z,1396.3
2023-03-06T06:48:25.722Z,1398
2023-03-06T06:50:09.333Z,1394
2023-03-06T06:51:53.149Z,1391.9
2023-03-06T06:53:36.854Z,1386
2023-03-06T06:55:20.500Z,1385.8
2023-03-06T06:57:04.194Z,1386.8
2023-03-06T06:58:47.857Z,1388.7
2023-03-06T07:00:31.570Z,1391.5
2023-03-06T07:02:15.358Z,1392.7
2023-03-06T07:03:58.915Z,1396
2023-03-06T07:05:42.764Z,1396.2
2023-03-06T07:07:26.460Z,1397.7
2023-03-06T07:09:10.196Z,1399.9
2023-03-06T07:10:53.677Z,1405.7
2023-03-06T07:12:37.530Z,1405.8
2023-03-06T07:14:21.287Z,1404.4
2023-03-06T07:16:04.953Z,1401.6
2023-03-06T07:17:48.659Z,1397.9
2023-03-06T07:19:32.376Z,1396.1
2023-03-06T07:21:16.010Z,1397.8
2023-03-06T07:22:59.764Z,1404.3
2023-03-06T07:24:43.489Z,1402.6
2023-03-06T07:26:27.153Z,1403.7
2023-03-06T07:28:10.956Z,1410.1
2023-03-06T07:29:54.560Z,1413.7
2023-03-06T07:31:38.276Z,1421.1
2023-03-06T07:33:21.973Z,1418
2023-03-06T07:35:05.554Z,1409.7
2023-03-06T07:36:49.403Z,1418.8
2023-03-06T07:38:32.999Z,1419
2023-03-06T07:40:16.799Z,1422.1
2023-03-06T07:42:00.533Z,1423.8
2023-03-06T07:43:44.190Z,1421.3
2023-03-06T07:45:27.878Z,1414.8
2023-03-06T07:47:11.636Z,1411.4
2023-03-06T07:48:55.333Z,1407.5
2023-03-06T07:50:38.880Z,1414.8
2023-03-06T07:52:22.529Z,1412.9
2023-03-06T07:54:06.253Z,1395.7
2023-03-06T07:55:50.123Z,1388.6
2023-03-06T07:57:33.646Z,1389.2
2023-03-06T07:59:17.563Z,1380.7
2023-03-06T08:01:01.061Z,1375.8
2023-03-06T08:02:44.755Z,1372.1
2023-03-06T08:04:28.617Z,1370.3
2023-03-06T08:06:12.333Z,1369.5
2023-03-06T08:07:56.029Z,1370.7
2023-03-06T08:09:39.717Z,1371.1
2023-03-06T08:11:23.491Z,1371.8
2023-03-06T08:13:07.041Z,1372.5
2023-03-06T08:14:50.688Z,1374.8
2023-03-06T08:16:34.417Z,1370.8
2023-03-06T08:18:18.085Z,1370.5
2023-03-06T08:20:01.926Z,1368
2023-03-06T08:21:45.660Z,1370.8
2023-03-06T08:23:29.351Z,1369.4
2023-03-06T08:25:13.084Z,1366.4
2023-03-06T08:26:56.723Z,1364.7
2023-03-06T08:28:40.528Z,1367.1
2023-03-06T08:30:24.000Z,1370.8
2023-03-06T08:32:07.842Z,1371.2
2023-03-06T08:33:51.504Z,1372
2023-03-06T08:35:35.283Z,1371.8
2023-03-06T08:37:19.082Z,1371.7
2023-03-06T08:39:02.721Z,1375
2023-03-06T08:40:46.271Z,1370.6
2023-03-06T08:42:30.090Z,1361.9
2023-03-06T08:44:13.828Z,1366.5
2023-03-06T08:45:57.493Z,1372.2
2023-03-06T08:47:41.198Z,1375.6
2023-03-06T08:49:24.804Z,1379.3
2023-03-06T08:51:08.570Z,1388.5
2023-03-06T08:52:52.316Z,1398.7
2023-03-06T08:54:35.967Z,1407.9
2023-03-06T08:56:19.603Z,1410.5
2023-03-06T08:58:03.239Z,1411
2023-03-06T08:59:47.086Z,1411.1
2023-03-06T09:01:30.648Z,1412.4
2023-03-06T09:03:14.360Z,1409.6
2023-03-06T09:04:58.048Z,1407.8
2023-03-06T09:06:41.848Z,1413.2
2023-03-06T09:08:25.448Z,1469
2023-03-06T09:10:09.336Z,1477.9
2023-03-06T09:11:52.932Z,1474.3
2023-03-06T09:13:36.614Z,1464.2
2023-03-06T09:15:20.273Z,1456.8
2023-03-06T09:17:04.134Z,1454
2023-03-06T09:18:47.675Z,1449
2023-03-06T09:20:31.415Z,1445.7
2023-03-06T09:22:15.113Z,1439.6
2023-03-06T09:23:58.852Z,1440
2023-03-06T09:25:42.480Z,1436.6
2023-03-06T09:27:26.311Z,1435
2023-03-06T09:29:09.912Z,1433.9
2023-03-06T09:30:53.609Z,1433.8
2023-03-06T09:32:37.354Z,1433.3
2023-03-06T09:34:21.167Z,1432.7
2023-03-06T09:36:04.901Z,1429.1
2023-03-06T09:37:48.637Z,1431.8
2023-03-06T09:39:32.291Z,1427.6
2023-03-06T09:41:16.056Z,1422.2
2023-03-06T09:42:59.574Z,1419
2023-03-06T09:44:43.437Z,1421.7
2023-03-06T09:46:27.010Z,1421.6
2023-03-06T09:48:10.741Z,1422.9
2023-03-06T09:49:54.426Z,1421.4
2023-03-06T09:51:38.148Z,1423.3
2023-03-06T09:53:21.810Z,1420.8
2023-03-06T09:55:05.433Z,1413.5
2023-03-06T09:56:49.284Z,1408.9
2023-03-06T09:58:32.928Z,1404.1
2023-03-06T10:00:16.547Z,1403.6
2023-03-06T10:02:00.243Z,1402.6
2023-03-06T10:03:44.266Z,1401.9
2023-03-06T10:05:27.651Z,1397.2
2023-03-06T10:07:11.381Z,1396.8
2023-03-06T10:08:55.133Z,1399.3
2023-03-06T10:10:38.804Z,1398.5
2023-03-06T10:12:22.455Z,1398.1
2023-03-06T10:14:06.265Z,1398
2023-03-06T10:15:49.901Z,1400.7
2023-03-06T10:17:33.907Z,1405.4
2023-03-06T10:19:17.373Z,1407.2
2023-03-06T10:21:01.133Z,1410
2023-03-06T10:22:44.710Z,1410.6
2023-03-06T10:24:28.501Z,1410.3
2023-03-06T10:26:12.095Z,1408.5
2023-03-06T10:27:55.776Z,1403.1
2023-03-06T10:29:39.564Z,1404.1
2023-03-06T10:31:23.212Z,1409.2
2023-03-06T10:33:06.914Z,1407.1
2023-03-06T10:34:50.772Z,1410.7
2023-03-06T10:36:34.291Z,1410.2
2023-03-06T10:38:18.001Z,1408.8
2023-03-06T10:40:01.699Z,1409
2023-03-06T10:41:45.559Z,1408.1
2023-03-06T10:43:29.139Z,1407.5
2023-03-06T10:45:12.820Z,1406.2
2023-03-06T10:46:56.593Z,1406.7
2023-03-06T10:48:40.360Z,1407
2023-03-06T10:50:23.915Z,1410.3
2023-03-06T10:52:07.817Z,1406.4
2023-03-06T10:53:51.424Z,1405.3
2023-03-06T10:55:35.178Z,1412.4
2023-03-06T10:57:18.825Z,1415.4
2023-03-06T10:59:02.437Z,1408.6
2023-03-06T11:00:46.365Z,1401.1
2023-03-06T11:02:29.868Z,1397.7
2023-03-06T11:04:13.625Z,1395.8
2023-03-06T11:05:57.237Z,1396.3
2023-03-06T11:07:41.059Z,1396.8
2023-03-06T11:09:24.641Z,1402.8
2023-03-06T11:11:08.488Z,1415.2
2023-03-06T11:12:52.188Z,1427.1
2023-03-06T11:14:35.776Z,1461.4
2023-03-06T11:16:19.488Z,1479.3
2023-03-06T11:18:03.202Z,1490.1
2023-03-06T11:19:46.905Z,1508.6
2023-03-06T11:21:30.645Z,1523.7
2023-03-06T11:23:14.254Z,1534.6
2023-03-06T11:24:57.971Z,1547
2023-03-06T11:26:41.738Z,1558.3
2023-03-06T11:28:25.448Z,1568.1
2023-03-06T11:30:09.156Z,1576.6
2023-03-06T11:31:52.949Z,1579.4
2023-03-06T11:33:36.524Z,1583
2023-03-06T11:35:20.271Z,1586.4
2023-03-06T11:37:03.944Z,1589.7
2023-03-06T11:38:47.708Z,1591.7
2023-03-06T11:40:31.292Z,1600.2
2023-03-06T11:42:14.983Z,1604.1
2023-03-06T11:43:58.690Z,1605.3
2023-03-06T11:45:42.499Z,1609.4
2023-03-06T11:47:26.098Z,1612.1
2023-03-06T11:49:09.885Z,1610.8
2023-03-06T11:50:53.530Z,1610.5
2023-03-06T11:52:37.283Z,1603.3
2023-03-06T11:54:20.965Z,1604
2023-03-06T11:56:04.626Z,1603.6
2023-03-06T11:57:48.309Z,1599.9
2023-03-06T11:59:32.126Z,1600.5
2023-03-06T12:01:15.802Z,1599.9
2023-03-06T12:02:59.419Z,1601.2
2023-03-06T12:04:43.113Z,1600.7
2023-03-06T12:06:26.815Z,1598.8
2023-03-06T12:08:10.530Z,1593.8
2023-03-06T12:09:54.223Z,1589
2023-03-06T12:11:37.956Z,1586.5
2023-03-06T12:13:21.722Z,1583.3
2023-03-06T12:15:05.321Z,1578.3
2023-03-06T12:16:49.044Z,1575.9
2023-03-06T12:18:32.735Z,1575.1
2023-03-06T12:20:16.443Z,1572.1
2023-03-06T12:22:00.173Z,1567.9
2023-03-06T12:23:43.886Z,1565.6
2023-03-06T12:25:27.548Z,1558
2023-03-06T12:27:11.286Z,1554.9
2023-03-06T12:28:54.995Z,1552.8
2023-03-06T12:30:38.666Z,1549.1
2023-03-06T12:32:22.389Z,1544.2
2023-03-06T12:34:06.147Z,1543.9
2023-03-06T12:37:33.481Z,1543.1
2023-03-06T12:39:17.289Z,1536
2023-03-06T12:41:00.913Z,1535.9
2023-03-06T12:42:44.576Z,1534.8
2023-03-06T12:44:28.276Z,1531.8
2023-03-06T12:46:12.250Z,1528.8
2023-03-06T12:47:55.673Z,1523.4
2023-03-06T12:49:39.386Z,1521.3
2023-03-06T12:51:23.108Z,1524
2023-03-06T12:53:06.793Z,1525.2
2023-03-06T12:54:50.509Z,1519.6
2023-03-06T12:56:34.204Z,1515.4
2023-03-06T12:58:17.894Z,1513.6
2023-03-06T13:00:01.773Z,1511.6
2023-03-06T13:01:45.346Z,1510.7
2023-03-06T13:03:29.002Z,1510.6
2023-03-06T13:06:56.502Z,1514.1
2023-03-06T13:08:40.195Z,1512
2023-03-06T13:10:23.862Z,1511.2
2023-03-06T13:12:07.524Z,1505.5
2023-03-06T13:13:51.355Z,1505.8
2023-03-06T13:15:35.099Z,1504.6
2023-03-06T13:17:18.674Z,1505.8
2023-03-06T13:19:02.397Z,1506.1
2023-03-06T13:20:46.119Z,1502.1
2023-03-06T13:22:29.741Z,1501.5
2023-03-06T13:24:13.429Z,1502.4
2023-03-06T13:25:57.155Z,1500.8
2023-03-06T13:27:40.842Z,1502.1
2023-03-06T13:29:24.646Z,1500.9
2023-03-06T13:31:08.309Z,1499.8
2023-03-06T13:32:52.035Z,1503
2023-03-06T13:34:35.654Z,1508.9
2023-03-06T13:36:19.480Z,1507.3
2023-03-06T13:38:03.067Z,1503
2023-03-06T13:39:46.769Z,1503.3
2023-03-06T13:41:30.596Z,1497.3
2023-03-06T13:43:14.158Z,1492.3
2023-03-06T13:44:57.865Z,1485.2
2023-03-06T13:46:41.694Z,1481
2023-03-06T13:48:25.359Z,1478.2
2023-03-06T13:50:09.118Z,1473.7
2023-03-06T13:51:52.752Z,1472.7
2023-03-06T13:53:36.492Z,1470.4
2023-03-06T13:55:20.086Z,1467
2023-03-06T13:57:03.965Z,1464.3
2023-03-06T13:58:47.606Z,1464
2023-03-06T14:00:31.227Z,1460.4
2023-03-06T14:02:15.134Z,1463.5
2023-03-06T14:03:58.760Z,1463.4
2023-03-06T14:05:42.318Z,1461.5
2023-03-06T14:07:26.164Z,1459.5
2023-03-06T14:09:09.844Z,1460.5
2023-03-06T14:10:53.561Z,1459.8
2023-03-06T14:12:37.299Z,1457.6
2023-03-06T14:16:04.680Z,1461.2
2023-03-06T14:17:48.334Z,1463.9
2023-03-06T14:19:32.065Z,1463.6
2023-03-06T14:21:15.612Z,1468.4
2023-03-06T14:22:59.448Z,1474.1
2023-03-06T14:24:43.036Z,1474.7
2023-03-06T14:26:26.828Z,1476.7
2023-03-06T14:28:10.422Z,1478.7
2023-03-06T14:29:54.114Z,1475.1
2023-03-06T14:31:37.844Z,1474.2
2023-03-06T14:33:21.665Z,1470.7
2023-03-06T14:35:05.474Z,1467.6
2023-03-06T14:36:49.186Z,1461.3
2023-03-06T14:38:32.737Z,1455.3
2023-03-06T14:40:16.464Z,1456.5
2023-03-06T14:43:43.839Z,1450.1
2023-03-06T14:45:27.553Z,1453.3
2023-03-06T14:47:11.149Z,1453.7
2023-03-06T14:48:55.021Z,1454.7
2023-03-06T14:50:38.718Z,1452.2
2023-03-06T14:52:22.259Z,1450.1
2023-03-06T14:54:06.137Z,1450.1
2023-03-06T14:55:49.812Z,1452.7
2023-03-06T14:57:33.497Z,1454.4
2023-03-06T14:59:17.267Z,1450.9
2023-03-06T15:01:00.929Z,1452.2
2023-03-06T15:02:44.471Z,1445.8
2023-03-06T15:04:28.272Z,1445.9
2023-03-06T15:06:12.042Z,1445.3
2023-03-06T15:07:55.570Z,1444.9
2023-03-06T15:09:39.420Z,1448.6
2023-03-06T15:11:22.981Z,1459.2
2023-03-06T15:13:06.729Z,1469.9
2023-03-06T15:14:50.455Z,1474.7
2023-03-06T15:16:34.133Z,1480
2023-03-06T15:18:17.782Z,1477.6
2023-03-06T15:20:01.558Z,1481.5
2023-03-06T15:21:45.196Z,1471.3
2023-03-06T15:23:28.904Z,1467.2
2023-03-06T15:25:12.606Z,1458.1
2023-03-06T15:26:56.308Z,1450.2
2023-03-06T15:28:40.030Z,1444.3
2023-03-06T15:30:23.824Z,1444
2023-03-06T15:32:07.535Z,1442.5
2023-03-06T15:33:51.203Z,1443
2023-03-06T15:35:34.949Z,1442.6
2023-03-06T15:37:18.521Z,1441.9
2023-03-06T15:39:02.413Z,1440.6
2023-03-06T15:40:46.081Z,1440.6
2023-03-06T15:42:29.790Z,1442.1
2023-03-06T15:44:13.481Z,1440.5
2023-03-06T15:45:57.098Z,1438.6
2023-03-06T15:47:40.784Z,1439.9
2023-03-06T15:49:24.536Z,1437.2
2023-03-06T15:51:08.200Z,1432.4
2023-03-06T15:52:51.988Z,1428.4
2023-03-06T15:54:35.621Z,1428.9
2023-03-06T15:56:19.272Z,1428.8
2023-03-06T15:58:02.970Z,1435.6
2023-03-06T15:59:46.669Z,1433.3
2023-03-06T16:01:30.446Z,1427.8
2023-03-06T16:03:14.071Z,1424.3
2023-03-06T16:04:57.931Z,1424.7
2023-03-06T16:06:41.673Z,1422.5
2023-03-06T16:08:25.292Z,1421.5
2023-03-06T16:10:08.877Z,1423
2023-03-06T16:11:52.726Z,1429.2
2023-03-06T16:13:36.352Z,1426.8
2023-03-06T16:15:20.223Z,1449.3
2023-03-06T16:17:03.702Z,1493.4
2023-03-06T16:18:47.499Z,1495.9
2023-03-06T16:20:31.134Z,1489.4
2023-03-06T16:22:14.842Z,1494.4
2023-03-06T16:23:58.485Z,1496.3
2023-03-06T16:25:42.263Z,1495.6
2023-03-06T16:27:25.907Z,1499.3
2023-03-06T16:29:09.600Z,1508.5
2023-03-06T16:30:53.376Z,1515.8
2023-03-06T16:32:37.032Z,1510.6
2023-03-06T16:34:20.748Z,1499.1
2023-03-06T16:36:04.627Z,1480
2023-03-06T16:37:48.341Z,1476
2023-03-06T16:39:31.968Z,1476.4
2023-03-06T16:41:15.516Z,1482
2023-03-06T16:42:59.325Z,1483.4
2023-03-06T16:44:42.962Z,1485.3
2023-03-06T16:46:26.665Z,1485.9
2023-03-06T16:48:10.389Z,1479.5
2023-03-06T16:49:54.144Z,1475.9
2023-03-06T16:51:37.825Z,1475.6
2023-03-06T16:53:21.462Z,1478.4
2023-03-06T16:55:05.281Z,1474
2023-03-06T16:56:48.894Z,1468.8
2023-03-06T16:58:32.582Z,1469
2023-03-06T17:00:16.232Z,1466.9
2023-03-06T17:02:00.041Z,1469.6
2023-03-06T17:03:43.670Z,1473.5
2023-03-06T17:05:27.363Z,1475
2023-03-06T17:07:11.052Z,1471.9
2023-03-06T17:08:54.758Z,1469.3
2023-03-06T17:10:38.458Z,1467.6
2023-03-06T17:12:22.154Z,1463.8
2023-03-06T17:14:05.868Z,1460.6
2023-03-06T17:15:49.593Z,1459.6
2023-03-06T17:17:33.297Z,1456.3
2023-03-06T17:19:17.040Z,1455.1
2023-03-06T17:21:00.677Z,1455.1
2023-03-06T17:22:44.377Z,1457.1
2023-03-06T17:24:28.081Z,1461.6
2023-03-06T17:26:11.772Z,1462.4
2023-03-06T17:27:55.541Z,1458.5
2023-03-06T17:29:39.215Z,1452.6
2023-03-06T17:31:22.898Z,1448.3
2023-03-06T17:33:06.591Z,1446.9
2023-03-06T17:34:50.289Z,1445.6
2023-03-06T17:36:34.061Z,1443.3
2023-03-06T17:38:17.697Z,1442.6
2023-03-06T17:40:01.407Z,1445.5
2023-03-06T17:41:45.160Z,1443.1
2023-03-06T17:43:28.805Z,1440.4
2023-03-06T17:45:12.497Z,1444.3
2023-03-06T17:46:56.206Z,1454
2023-03-06T17:48:39.972Z,1452.7
2023-03-06T17:50:23.610Z,1454.4
2023-03-06T17:52:07.318Z,1453.4
2023-03-06T17:53:51.015Z,1453.6
2023-03-06T17:55:34.719Z,1448.2
2023-03-06T17:57:18.415Z,1448.8
2023-03-06T17:59:02.144Z,1449.7
2023-03-06T18:00:45.828Z,1444.1
2023-03-06T18:02:29.536Z,1439.5
2023-03-06T18:04:13.240Z,1437.7
2023-03-06T18:05:56.924Z,1440.9
2023-03-06T18:07:40.781Z,1443.4
2023-03-06T18:09:24.327Z,1442.7
2023-03-06T18:11:08.082Z,1441.7
2023-03-06T18:12:51.729Z,1443.7
2023-03-06T18:14:35.438Z,1446.7
2023-03-06T18:16:19.134Z,1448.8
2023-03-06T18:18:02.837Z,1446.6
2023-03-06T18:19:46.554Z,1447.9
2023-03-06T18:21:30.235Z,1447.9
2023-03-06T18:23:13.950Z,1453.2
2023-03-06T18:24:57.653Z,1452.4
2023-03-06T18:26:41.347Z,1455.1
2023-03-06T18:28:25.049Z,1456.6
2023-03-06T18:30:08.784Z,1463.1
2023-03-06T18:31:52.486Z,1460.2
2023-03-06T18:33:36.161Z,1462.9
2023-03-06T18:35:19.869Z,1466.6
2023-03-06T18:37:03.609Z,1472
2023-03-06T18:38:47.332Z,1472.7
2023-03-06T18:40:30.962Z,1473.7
2023-03-06T18:42:14.785Z,1480.7
2023-03-06T18:43:58.388Z,1483.5
2023-03-06T18:45:42.078Z,1487.7
2023-03-06T18:47:25.790Z,1486.6
2023-03-06T18:49:09.486Z,1489.4
2023-03-06T18:50:53.184Z,1492.3
2023-03-06T18:52:37.009Z,1485.8
2023-03-06T18:54:20.715Z,1479.3
2023-03-06T18:56:04.293Z,1478.6
2023-03-06T18:57:47.992Z,1474.7
2023-03-06T18:59:31.688Z,1472.9
2023-03-06T19:01:15.391Z,1466.6
2023-03-06T19:02:59.108Z,1469.1
2023-03-06T19:04:42.815Z,1468.8
2023-03-06T19:06:26.509Z,1469.7
2023-03-06T19:08:10.203Z,1469.6
2023-03-06T19:09:53.943Z,1469.2
2023-03-06T19:11:37.638Z,1463.5
2023-03-06T19:13:21.313Z,1457.7
2023-03-06T19:15:05.020Z,1453
2023-03-06T19:16:48.730Z,1449.5
2023-03-06T19:18:32.467Z,1439.7
2023-03-06T19:20:16.124Z,1429.3
2023-03-06T19:21:59.892Z,1433
2023-03-06T19:23:43.531Z,1428.8
2023-03-06T19:25:27.241Z,1429.2
2023-03-06T19:27:10.929Z,1427.3
2023-03-06T19:28:54.640Z,1430.2
2023-03-06T19:30:38.348Z,1430.5
2023-03-06T19:32:22.082Z,1430.3
2023-03-06T19:34:05.751Z,1426.1
2023-03-06T19:35:49.447Z,1415.8
2023-03-06T19:37:33.167Z,1403.5
2023-03-06T19:39:16.861Z,1405.9
2023-03-06T19:41:00.557Z,1407.1
2023-03-06T19:42:44.258Z,1406.9
2023-03-06T19:44:28.038Z,1407.8
2023-03-06T19:46:11.678Z,1411
2023-03-06T19:47:55.370Z,1408.6
2023-03-06T19:49:39.068Z,1408.9
2023-03-06T19:51:22.783Z,1413
2023-03-06T19:53:06.481Z,1417.5
2023-03-06T19:54:50.179Z,1431
2023-03-06T19:56:33.912Z,1443.5
2023-03-06T19:58:17.586Z,1445.3
2023-03-06T20:00:01.286Z,1445.5
2023-03-06T20:01:45.001Z,1447.2
2023-03-06T20:03:28.697Z,1445
2023-03-06T20:05:12.396Z,1444.9
2023-03-06T20:06:56.110Z,1451.6
2023-03-06T20:08:39.799Z,1453.6
2023-03-06T20:10:23.500Z,1448.9
2023-03-06T20:12:07.209Z,1448.8
2023-03-06T20:13:50.923Z,1448.1
2023-03-06T20:15:34.610Z,1447.6
2023-03-06T20:17:18.305Z,1450.1
2023-03-06T20:19:02.026Z,1450.1
2023-03-06T20:20:45.737Z,1451.3
2023-03-06T20:22:29.398Z,1454.3
2023-03-06T20:24:13.110Z,1449
2023-03-06T20:25:56.819Z,1448.6
2023-03-06T20:27:40.525Z,1446.9
2023-03-06T20:29:24.223Z,1440.3
2023-03-06T20:31:07.949Z,1437.1
2023-03-06T20:32:51.631Z,1432.3
2023-03-06T20:34:35.330Z,1421.6
2023-03-06T20:36:19.031Z,1416.7
2023-03-06T20:38:02.737Z,1417.2
2023-03-06T20:39:46.448Z,1420
2023-03-06T20:41:30.190Z,1422.5
2023-03-06T20:43:13.837Z,1420.2
2023-03-06T20:44:57.541Z,1419.7
2023-03-06T20:46:41.269Z,1419.8
2023-03-06T20:48:24.956Z,1415.1
2023-03-06T20:50:08.727Z,1411.3
2023-03-06T20:51:52.440Z,1412.9
2023-03-06T20:53:36.088Z,1411.7
2023-03-06T20:55:19.761Z,1412.1
2023-03-06T20:57:03.466Z,1413.8
2023-03-06T20:58:47.173Z,1411.5
2023-03-06T21:00:30.905Z,1406.4
2023-03-06T21:02:14.688Z,1406.7
2023-03-06T21:03:58.273Z,1404.8
2023-03-06T21:05:41.984Z,1402.6
2023-03-06T21:07:25.698Z,1402.5
2023-03-06T21:09:09.393Z,1402.3
2023-03-06T21:10:53.086Z,1397
2023-03-06T21:12:36.795Z,1398.8
2023-03-06T21:14:20.623Z,1401.3
2023-03-06T21:16:04.215Z,1401.5
2023-03-06T21:17:47.954Z,1403.2
2023-03-06T21:19:31.602Z,1407.5
2023-03-06T21:21:15.307Z,1427.5
2023-03-06T21:22:59.027Z,1454.3
2023-03-06T21:24:42.702Z,1463.6
2023-03-06T21:26:26.418Z,1471.2
2023-03-06T21:28:10.127Z,1474.5
2023-03-06T21:29:53.811Z,1460.9
2023-03-06T21:31:37.517Z,1448.6
2023-03-06T21:33:21.229Z,1432.7
2023-03-06T21:35:04.922Z,1428
2023-03-06T21:36:48.624Z,1428.4
2023-03-06T21:38:32.329Z,1427.4
2023-03-06T21:40:16.046Z,1427.9
2023-03-06T21:41:59.727Z,1420.8
2023-03-06T21:43:43.438Z,1410.1
2023-03-06T21:45:27.140Z,1406.7
2023-03-06T21:47:10.833Z,1399.6
2023-03-06T21:48:54.543Z,1366.4
2023-03-06T21:50:38.278Z,1367.5
2023-03-06T21:52:21.947Z,1379.3
2023-03-06T21:54:05.645Z,1391.6
2023-03-06T21:55:49.341Z,1404.9
2023-03-06T21:57:33.105Z,1403.7
2023-03-06T21:59:16.789Z,1395.6